createdAt,value
2019-02-17T00:01:37.725Z,9.23
2019-02-17T00:04:06.615Z,8.70
2019-02-17T00:06:35.507Z,9.53
2019-02-17T00:09:07.675Z,8.53
2019-02-17T00:11:36.565Z,9.10
2019-02-17T00:14:05.458Z,9.53
2019-02-17T00:16:34.349Z,10.83
2019-02-17T00:19:03.217Z,10.60
2019-02-17T00:21:32.132Z,11.20
2019-02-17T00:24:01.022Z,10.83
2019-02-17T00:26:29.915Z,10.77
2019-02-17T00:28:59.752Z,10.67
2019-02-17T00:31:29.027Z,11.10
2019-02-17T00:33:57.895Z,12.40
2019-02-17T00:36:26.912Z,11.00
2019-02-17T00:38:55.803Z,10.90
2019-02-17T00:41:25.786Z,10.37
2019-02-17T00:43:54.711Z,10.37
2019-02-17T00:46:23.603Z,10.90
2019-02-17T00:48:52.495Z,11.03
2019-02-17T00:51:21.386Z,10.47
2019-02-17T00:53:50.278Z,10.30
2019-02-17T00:56:19.168Z,10.53
2019-02-17T00:58:48.060Z,9.80
2019-02-17T01:01:16.956Z,9.63
2019-02-17T01:03:45.819Z,9.20
2019-02-17T01:06:14.839Z,10.43
2019-02-17T01:08:43.729Z,10.53
2019-02-17T01:11:12.620Z,10.70
2019-02-17T01:13:41.615Z,11.10
2019-02-17T01:16:10.506Z,10.13
2019-02-17T01:18:39.371Z,10.53
2019-02-17T01:21:08.288Z,10.83
2019-02-17T01:23:37.280Z,11.43
2019-02-17T01:26:06.173Z,9.43
2019-02-17T01:28:35.062Z,10.30
2019-02-17T01:31:03.954Z,11.30
2019-02-17T01:33:33.964Z,10.43
2019-02-17T01:36:02.866Z,11.23
2019-02-17T01:38:31.730Z,9.90
2019-02-17T01:41:00.646Z,9.73
2019-02-17T01:43:29.539Z,10.07
2019-02-17T01:45:58.427Z,8.97
2019-02-17T01:48:27.320Z,9.13
2019-02-17T01:50:56.215Z,9.47
2019-02-17T01:53:25.101Z,9.30
2019-02-17T01:55:55.078Z,8.37
2019-02-17T01:58:24.009Z,9.27
2019-02-17T02:00:52.900Z,9.67
2019-02-17T02:03:21.791Z,9.03
2019-02-17T02:05:50.683Z,10.00
2019-02-17T02:08:19.551Z,10.27
2019-02-17T02:10:48.440Z,9.53
2019-02-17T02:13:17.357Z,9.80
2019-02-17T02:15:46.247Z,10.10
2019-02-17T02:18:15.138Z,9.77
2019-02-17T02:20:44.029Z,9.17
2019-02-17T02:23:12.920Z,10.33
2019-02-17T02:25:41.774Z,11.30
2019-02-17T02:28:10.643Z,9.90
2019-02-17T02:30:39.975Z,10.30
2019-02-17T02:33:08.947Z,10.37
2019-02-17T02:35:37.815Z,10.97
2019-02-17T02:38:06.642Z,9.87
2019-02-17T02:40:35.516Z,10.37
2019-02-17T02:43:04.382Z,10.10
2019-02-17T02:45:33.220Z,10.80
2019-02-17T02:48:02.086Z,9.47
2019-02-17T02:50:30.959Z,10.33
2019-02-17T02:52:59.798Z,10.27
2019-02-17T02:55:28.666Z,10.73
2019-02-17T02:57:57.537Z,10.67
2019-02-17T03:00:26.368Z,9.43
2019-02-17T03:02:55.242Z,9.97
2019-02-17T03:05:24.103Z,10.33
2019-02-17T03:07:52.926Z,9.90
2019-02-17T03:10:21.798Z,9.60
2019-02-17T03:12:50.663Z,9.23
2019-02-17T03:15:19.499Z,9.97
2019-02-17T03:17:48.362Z,9.90
2019-02-17T03:20:17.231Z,9.30
2019-02-17T03:22:46.073Z,9.70
2019-02-17T03:25:14.931Z,9.53
2019-02-17T03:27:43.804Z,9.23
2019-02-17T03:30:12.631Z,9.57
2019-02-17T03:32:41.499Z,9.40
2019-02-17T03:35:10.375Z,9.43
2019-02-17T03:37:39.202Z,9.03
2019-02-17T03:40:09.362Z,9.07
2019-02-17T03:42:38.238Z,9.27
2019-02-17T03:45:09.672Z,9.43
2019-02-17T03:47:38.540Z,9.03
2019-02-17T03:50:07.902Z,8.67
2019-02-17T03:52:36.841Z,8.97
2019-02-17T03:55:05.922Z,8.77
2019-02-17T03:57:34.789Z,8.80
2019-02-17T04:00:16.086Z,8.90
2019-02-17T04:02:35.015Z,9.43
2019-02-17T04:05:04.334Z,9.50
2019-02-17T04:07:33.225Z,9.67
2019-02-17T04:10:02.117Z,8.97
2019-02-17T04:12:31.009Z,8.50
2019-02-17T04:14:59.870Z,8.87
2019-02-17T04:17:28.997Z,8.73
2019-02-17T04:19:57.989Z,8.80
2019-02-17T04:22:26.858Z,8.00
2019-02-17T04:24:55.771Z,8.83
2019-02-17T04:27:24.665Z,8.70
2019-02-17T04:29:53.551Z,8.77
2019-02-17T04:32:22.419Z,9.30
2019-02-17T04:34:51.313Z,9.57
2019-02-17T04:37:20.226Z,8.37
2019-02-17T04:39:49.120Z,8.83
2019-02-17T04:42:18.010Z,8.90
2019-02-17T04:44:46.900Z,8.63
2019-02-17T04:47:15.767Z,9.87
2019-02-17T04:49:44.659Z,8.20
2019-02-17T04:52:13.573Z,8.67
2019-02-17T04:54:42.465Z,9.53
2019-02-17T04:57:11.356Z,9.43
2019-02-17T04:59:40.247Z,9.30
2019-02-17T05:02:09.139Z,10.43
2019-02-17T05:04:38.030Z,9.83
2019-02-17T05:07:06.920Z,10.00
2019-02-17T05:09:36.902Z,8.77
2019-02-17T05:12:05.932Z,9.50
2019-02-17T05:14:34.801Z,8.97
2019-02-17T05:17:03.713Z,10.53
2019-02-17T05:19:32.578Z,9.47
2019-02-17T05:22:01.504Z,10.00
2019-02-17T05:24:30.387Z,9.80
2019-02-17T05:26:59.280Z,9.17
2019-02-17T05:29:28.171Z,9.00
2019-02-17T05:31:57.062Z,9.23
2019-02-17T05:34:25.956Z,9.10
2019-02-17T05:36:54.844Z,9.77
2019-02-17T05:39:25.493Z,9.00
2019-02-17T05:41:54.469Z,9.73
2019-02-17T05:44:23.361Z,9.60
2019-02-17T05:46:52.253Z,8.73
2019-02-17T05:49:21.142Z,8.90
2019-02-17T05:51:50.008Z,9.10
2019-02-17T05:54:18.926Z,8.83
2019-02-17T05:56:47.817Z,8.97
2019-02-17T06:02:45.606Z,8.17
2019-02-17T06:05:14.702Z,7.73
2019-02-17T06:07:43.597Z,8.63
2019-02-17T06:10:12.485Z,9.13
2019-02-17T06:12:41.478Z,8.20
2019-02-17T06:15:10.370Z,8.73
2019-02-17T06:17:41.208Z,8.30
2019-02-17T06:20:11.402Z,8.13
2019-02-17T06:22:40.321Z,8.87
2019-02-17T06:25:09.215Z,9.43
2019-02-17T06:27:38.079Z,10.07
2019-02-17T06:30:09.059Z,8.80
2019-02-17T06:32:38.137Z,8.60
2019-02-17T06:35:07.845Z,8.60
2019-02-17T06:37:36.742Z,8.70
2019-02-17T06:40:07.360Z,8.43
2019-02-17T06:42:36.262Z,8.20
2019-02-17T06:45:06.908Z,8.90
2019-02-17T06:47:35.990Z,9.10
2019-02-17T06:50:06.281Z,8.73
2019-02-17T06:52:35.206Z,8.80
2019-02-17T06:55:15.263Z,8.70
2019-02-17T06:57:44.252Z,8.93
2019-02-17T07:00:14.756Z,8.03
2019-02-17T07:02:43.673Z,9.30
2019-02-17T07:05:30.486Z,9.93
2019-02-17T07:07:59.478Z,10.13
2019-02-17T07:10:28.471Z,9.03
2019-02-17T07:12:57.364Z,9.80
2019-02-17T07:15:26.361Z,8.60
2019-02-17T07:17:55.452Z,8.63
2019-02-17T07:20:24.355Z,8.90
2019-02-17T07:22:53.234Z,9.80
2019-02-17T07:28:51.511Z,9.20
2019-02-17T07:31:22.503Z,9.57
2019-02-17T07:33:50.935Z,10.97
2019-02-17T07:36:21.958Z,11.77
2019-02-17T07:38:50.481Z,11.57
2019-02-17T07:41:19.372Z,12.80
2019-02-17T07:43:48.238Z,12.93
2019-02-17T07:46:17.259Z,13.57
2019-02-17T07:48:46.151Z,13.53
2019-02-17T07:51:15.245Z,12.63
2019-02-17T07:53:44.345Z,13.83
2019-02-17T07:56:13.335Z,15.10
2019-02-17T07:58:42.326Z,16.40
2019-02-17T08:01:11.321Z,14.80
2019-02-17T08:03:40.211Z,15.87
2019-02-17T08:06:09.208Z,13.40
2019-02-17T08:08:38.097Z,14.60
2019-02-17T08:11:06.988Z,14.03
2019-02-17T08:13:35.826Z,13.67
2019-02-17T08:16:44.604Z,12.43
2019-02-17T08:19:13.471Z,12.77
2019-02-17T08:21:42.387Z,12.87
2019-02-17T08:24:11.485Z,13.53
2019-02-17T08:26:40.376Z,12.70
2019-02-17T08:29:09.367Z,12.27
2019-02-17T08:31:38.463Z,12.13
2019-02-17T08:34:07.456Z,13.60
2019-02-17T08:36:36.452Z,11.30
2019-02-17T08:39:06.342Z,11.50
2019-02-17T08:41:35.439Z,12.63
2019-02-17T08:44:04.559Z,11.77
2019-02-17T08:46:33.450Z,12.27
2019-02-17T08:49:02.443Z,11.53
2019-02-17T08:51:31.655Z,12.50
2019-02-17T08:54:00.533Z,11.53
2019-02-17T08:56:29.503Z,11.33
2019-02-17T08:58:58.418Z,11.00
2019-02-17T09:01:27.376Z,12.27
2019-02-17T09:03:56.404Z,12.30
2019-02-17T09:06:27.214Z,11.93
2019-02-17T09:08:55.765Z,11.53
2019-02-17T09:11:24.648Z,11.70
2019-02-17T09:13:53.532Z,11.87
2019-02-17T09:16:22.380Z,11.33
2019-02-17T09:18:51.271Z,11.70
2019-02-17T09:21:20.159Z,12.03
2019-02-17T09:23:49.003Z,12.10
2019-02-17T09:26:17.904Z,12.43
2019-02-17T09:28:46.796Z,11.47
2019-02-17T09:31:15.651Z,12.60
2019-02-17T09:33:44.535Z,11.87
2019-02-17T09:36:13.416Z,11.57
2019-02-17T09:38:42.283Z,11.80
2019-02-17T09:41:11.155Z,11.53
2019-02-17T09:43:40.041Z,11.63
2019-02-17T09:46:08.968Z,11.50
2019-02-17T09:48:38.085Z,11.87
2019-02-17T09:51:07.079Z,11.50
2019-02-17T09:53:35.946Z,11.73
2019-02-17T09:56:05.064Z,11.53
2019-02-17T09:58:35.004Z,11.53
2019-02-17T10:01:04.077Z,10.87
2019-02-17T10:03:32.968Z,10.47
2019-02-17T10:06:01.968Z,11.30
2019-02-17T10:08:30.853Z,11.33
2019-02-17T10:10:59.745Z,11.97
2019-02-17T10:13:28.738Z,10.60
2019-02-17T10:15:57.612Z,11.53
2019-02-17T10:18:26.621Z,10.17
2019-02-17T10:20:55.591Z,11.23
2019-02-17T10:23:24.485Z,10.77
2019-02-17T10:25:53.400Z,10.83
2019-02-17T10:28:22.291Z,11.50
2019-02-17T10:30:51.181Z,11.07
2019-02-17T10:33:20.174Z,11.13
2019-02-17T10:35:49.374Z,11.43
2019-02-17T10:38:18.265Z,10.50
2019-02-17T10:40:47.338Z,10.13
2019-02-17T10:43:16.252Z,10.40
2019-02-17T10:45:45.143Z,9.97
2019-02-17T10:48:14.033Z,10.40
2019-02-17T10:50:42.925Z,9.97
2019-02-17T10:53:11.820Z,11.10
2019-02-17T10:55:40.810Z,10.50
2019-02-17T10:58:09.804Z,10.67
2019-02-17T11:00:38.679Z,10.60
2019-02-17T11:03:08.610Z,10.13
2019-02-17T11:05:37.706Z,10.70
2019-02-17T11:08:06.590Z,10.33
2019-02-17T11:10:35.462Z,9.50
2019-02-17T11:13:04.365Z,10.13
2019-02-17T11:15:33.316Z,10.20
2019-02-17T11:18:02.195Z,10.03
2019-02-17T11:20:31.071Z,10.57
2019-02-17T11:22:59.906Z,10.40
2019-02-17T11:25:28.781Z,10.40
2019-02-17T11:27:57.647Z,10.67
2019-02-17T11:30:26.483Z,10.07
2019-02-17T11:32:58.238Z,9.80
2019-02-17T11:35:25.870Z,10.23
2019-02-17T11:37:54.704Z,9.50
2019-02-17T11:40:23.574Z,10.60
2019-02-17T11:42:52.447Z,9.33
2019-02-17T11:45:21.279Z,9.03
2019-02-17T11:47:50.139Z,9.67
2019-02-17T11:50:19.025Z,10.27
2019-02-17T11:52:48.024Z,9.87
2019-02-17T11:55:17.094Z,9.73
2019-02-17T11:57:45.909Z,10.07
2019-02-17T12:00:17.518Z,10.33
2019-02-17T12:02:46.399Z,10.67
2019-02-17T12:05:15.272Z,9.23
2019-02-17T12:07:44.098Z,10.27
2019-02-17T12:10:13.076Z,9.73
2019-02-17T12:12:41.950Z,9.53
2019-02-17T12:15:12.907Z,9.10
2019-02-17T12:17:41.754Z,9.93
2019-02-17T12:20:26.998Z,9.50
2019-02-17T12:22:58.253Z,9.17
2019-02-17T12:25:28.691Z,9.47
2019-02-17T12:27:59.100Z,9.37
2019-02-17T12:30:27.966Z,8.87
2019-02-17T12:32:56.840Z,9.07
2019-02-17T12:35:25.668Z,9.00
2019-02-17T12:37:54.535Z,8.93
2019-02-17T12:40:23.411Z,9.33
2019-02-17T12:42:52.247Z,9.57
2019-02-17T12:45:21.115Z,8.87
2019-02-17T12:47:57.519Z,9.13
2019-02-17T12:50:20.470Z,9.80
2019-02-17T12:52:49.330Z,8.90
2019-02-17T12:55:18.207Z,8.83
2019-02-17T12:57:47.034Z,9.03
2019-02-17T13:00:17.711Z,9.20
2019-02-17T13:02:46.579Z,9.10
2019-02-17T13:05:15.411Z,9.37
2019-02-17T13:07:44.316Z,9.30
2019-02-17T13:10:13.376Z,8.63
2019-02-17T13:12:42.200Z,8.60
2019-02-17T13:15:12.877Z,8.80
2019-02-17T13:17:41.746Z,9.47
2019-02-17T13:20:12.474Z,9.17
2019-02-17T13:22:41.342Z,9.17
2019-02-17T13:25:13.181Z,9.17
2019-02-17T13:27:44.654Z,8.07
2019-02-17T13:30:22.052Z,9.00
2019-02-17T13:32:50.903Z,8.80
2019-02-17T13:35:19.779Z,9.23
2019-02-17T13:37:48.623Z,8.70
2019-02-17T13:40:17.501Z,8.97
2019-02-17T13:42:46.398Z,9.10
2019-02-17T13:45:16.326Z,8.43
2019-02-17T13:47:45.202Z,8.63
2019-02-17T13:50:15.379Z,8.43
2019-02-17T13:52:44.212Z,8.70
2019-02-17T13:55:13.075Z,8.90
2019-02-17T13:57:42.166Z,8.87
2019-02-17T14:00:13.887Z,9.43
2019-02-17T14:02:42.762Z,9.03
2019-02-17T14:05:11.723Z,8.40
2019-02-17T14:07:40.565Z,9.30
2019-02-17T14:10:11.336Z,9.23
2019-02-17T14:12:40.324Z,9.47
2019-02-17T14:15:17.462Z,9.47
2019-02-17T14:17:46.349Z,9.40
2019-02-17T14:20:15.167Z,8.90
2019-02-17T14:22:44.047Z,8.50
2019-02-17T14:25:13.027Z,8.30
2019-02-17T14:27:41.859Z,8.63
2019-02-17T14:30:12.827Z,9.10
2019-02-17T14:32:41.705Z,8.73
2019-02-17T14:35:10.539Z,9.70
2019-02-17T14:37:39.445Z,9.03
2019-02-17T14:40:12.871Z,9.00
2019-02-17T14:42:41.764Z,8.67
2019-02-17T14:45:17.316Z,7.90
2019-02-17T14:47:46.186Z,9.30
2019-02-17T14:50:15.068Z,7.90
2019-02-17T14:52:43.891Z,8.43
2019-02-17T14:55:13.264Z,8.53
2019-02-17T14:57:42.139Z,9.33
2019-02-17T15:00:15.338Z,8.53
2019-02-17T15:02:44.196Z,8.63
2019-02-17T15:05:13.126Z,8.53
2019-02-17T15:07:41.994Z,8.17
2019-02-17T15:10:12.164Z,8.17
2019-02-17T15:12:40.994Z,8.03
2019-02-17T15:15:11.672Z,8.03
2019-02-17T15:17:40.545Z,8.20
2019-02-17T15:20:17.960Z,8.03
2019-02-17T15:22:46.834Z,7.80
2019-02-17T15:25:15.753Z,7.63
2019-02-17T15:27:45.489Z,7.40
2019-02-17T15:30:17.779Z,8.10
2019-02-17T15:32:46.451Z,8.27
2019-02-17T15:35:15.317Z,7.33
2019-02-17T15:37:44.285Z,7.40
2019-02-17T15:40:14.425Z,7.27
2019-02-17T15:42:43.548Z,7.97
2019-02-17T15:45:13.783Z,8.33
2019-02-17T15:47:42.606Z,7.53
2019-02-17T15:50:12.785Z,6.83
2019-02-17T15:52:41.652Z,7.13
2019-02-17T15:55:12.551Z,7.00
2019-02-17T15:57:41.420Z,7.03
2019-02-17T16:00:17.947Z,7.40
2019-02-17T16:02:46.819Z,6.47
2019-02-17T16:05:15.719Z,6.87
2019-02-17T16:07:44.510Z,6.33
2019-02-17T16:10:15.556Z,6.17
2019-02-17T16:12:44.424Z,6.23
2019-02-17T16:15:24.199Z,6.03
2019-02-17T16:17:53.085Z,5.23
2019-02-17T16:20:21.910Z,5.00
2019-02-17T16:22:50.782Z,5.23
2019-02-17T16:25:19.650Z,4.57
2019-02-17T16:27:48.499Z,5.07
2019-02-17T16:30:21.860Z,4.40
2019-02-17T16:32:50.740Z,5.07
2019-02-17T16:35:19.604Z,4.67
2019-02-17T16:37:48.461Z,4.23
2019-02-17T16:40:18.336Z,4.70
2019-02-17T16:42:47.254Z,4.30
2019-02-17T16:45:16.141Z,4.33
2019-02-17T16:47:51.928Z,4.00
2019-02-17T16:50:25.439Z,4.30
2019-02-17T16:52:54.303Z,4.23
2019-02-17T16:55:23.182Z,4.10
2019-02-17T16:57:52.040Z,4.43
2019-02-17T17:00:25.211Z,3.70
2019-02-17T17:02:57.454Z,3.27
2019-02-17T17:05:26.393Z,3.50
2019-02-17T17:07:58.510Z,3.90
2019-02-17T17:10:27.320Z,4.03
2019-02-17T17:12:56.415Z,4.13
2019-02-17T17:15:25.326Z,3.63
2019-02-17T17:17:54.153Z,4.00
2019-02-17T17:20:34.283Z,2.90
2019-02-17T17:23:05.160Z,3.43
2019-02-17T17:25:33.650Z,3.67
2019-02-17T17:28:02.724Z,3.60
2019-02-17T17:30:31.775Z,3.50
2019-02-17T17:33:04.754Z,3.00
2019-02-17T17:35:36.467Z,3.27
2019-02-17T17:38:05.336Z,3.03
2019-02-17T17:40:36.008Z,3.30
2019-02-17T17:43:21.071Z,3.20
2019-02-17T17:46:14.175Z,3.07
2019-02-17T17:48:43.598Z,3.60
2019-02-17T17:51:18.574Z,3.37
2019-02-17T17:53:47.439Z,3.30
2019-02-17T17:56:16.259Z,3.23
2019-02-17T17:58:45.175Z,3.10
2019-02-17T18:01:14.035Z,3.03
2019-02-17T18:03:42.859Z,2.87
2019-02-17T18:06:11.732Z,2.90
2019-02-17T18:08:40.603Z,3.10
2019-02-17T18:11:09.435Z,2.90
2019-02-17T18:13:38.295Z,2.83
2019-02-17T18:16:07.162Z,2.90
2019-02-17T18:18:35.988Z,2.67
2019-02-17T18:21:04.853Z,3.00
2019-02-17T18:23:33.705Z,2.63
2019-02-17T18:26:02.530Z,3.07
2019-02-17T18:28:31.403Z,3.00
2019-02-17T18:31:00.264Z,2.50
2019-02-17T18:33:29.093Z,2.77
2019-02-17T18:35:57.967Z,2.60
2019-02-17T18:38:26.856Z,2.50
2019-02-17T18:40:55.658Z,2.83
2019-02-17T18:43:24.523Z,2.83
2019-02-17T18:45:53.388Z,3.20
2019-02-17T18:48:22.206Z,2.87
2019-02-17T18:50:58.918Z,3.60
2019-02-17T18:53:21.596Z,2.90
2019-02-17T18:55:50.419Z,3.00
2019-02-17T18:58:19.292Z,3.23
2019-02-17T19:00:51.001Z,2.80
2019-02-17T19:03:19.823Z,3.27
2019-02-17T19:05:48.685Z,2.77
2019-02-17T19:08:17.546Z,3.40
2019-02-17T19:10:46.371Z,3.07
2019-02-17T19:13:15.235Z,3.30
2019-02-17T19:15:44.096Z,4.10
2019-02-17T19:18:12.935Z,3.40
2019-02-17T19:20:41.805Z,3.33
2019-02-17T19:23:10.666Z,3.07
2019-02-17T19:25:39.508Z,2.67
2019-02-17T19:28:08.462Z,3.10
2019-02-17T19:30:37.331Z,2.63
2019-02-17T19:33:06.156Z,2.73
2019-02-17T19:35:41.460Z,3.10
2019-02-17T19:38:05.527Z,3.43
2019-02-17T19:40:34.356Z,3.63
2019-02-17T19:43:03.645Z,3.70
2019-02-17T19:45:32.611Z,3.23
2019-02-17T19:48:01.447Z,6.23
2019-02-17T19:50:30.352Z,3.23
2019-02-17T19:52:59.195Z,3.30
2019-02-17T19:55:28.026Z,3.80
2019-02-17T19:57:56.887Z,3.20
2019-02-17T20:00:25.754Z,3.77
2019-02-17T20:03:07.818Z,3.73
2019-02-17T20:05:38.259Z,4.30
2019-02-17T20:08:07.084Z,3.47
2019-02-17T20:10:36.069Z,3.40
2019-02-17T20:13:04.977Z,3.80
2019-02-17T20:15:34.962Z,3.07
2019-02-17T20:18:03.919Z,2.97
2019-02-17T20:20:32.775Z,3.60
2019-02-17T20:23:01.819Z,3.00
2019-02-17T20:25:30.690Z,3.37
2019-02-17T20:27:59.580Z,3.77
2019-02-17T20:30:28.419Z,3.17
2019-02-17T20:32:57.269Z,3.67
2019-02-17T20:35:26.143Z,3.27
2019-02-17T20:37:54.986Z,3.43
2019-02-17T20:40:23.845Z,4.30
2019-02-17T20:42:52.784Z,3.70
2019-02-17T20:45:21.703Z,3.43
2019-02-17T20:47:51.058Z,3.07
2019-02-17T20:50:20.287Z,3.13
2019-02-17T20:52:49.151Z,2.70
2019-02-17T20:55:18.017Z,3.30
2019-02-17T20:57:47.753Z,3.00
2019-02-17T21:00:18.822Z,3.10
2019-02-17T21:02:47.655Z,3.27
2019-02-17T21:05:16.478Z,3.33
2019-02-17T21:07:45.358Z,3.43
2019-02-17T21:10:15.775Z,3.40
2019-02-17T21:12:44.608Z,3.70
2019-02-17T21:15:18.608Z,3.67
2019-02-17T21:17:47.477Z,3.73
2019-02-17T21:20:17.824Z,3.70
2019-02-17T21:22:46.695Z,3.80
2019-02-17T21:25:15.656Z,3.87
2019-02-17T21:27:44.522Z,3.50
2019-02-17T21:30:15.488Z,3.83
2019-02-17T21:32:44.355Z,3.73
2019-02-17T21:35:14.592Z,3.73
2019-02-17T21:37:43.454Z,4.03
2019-02-17T21:40:13.018Z,3.73
2019-02-17T21:42:41.860Z,4.30
2019-02-17T21:45:12.232Z,3.53
2019-02-17T21:47:41.331Z,4.07
2019-02-17T21:50:16.578Z,4.10
2019-02-17T21:52:45.463Z,3.53
2019-02-17T21:55:15.264Z,3.50
2019-02-17T21:57:44.145Z,4.10
2019-02-17T22:00:16.895Z,4.07
2019-02-17T22:02:45.747Z,4.57
2019-02-17T22:05:14.849Z,4.17
2019-02-17T22:07:44.123Z,4.87
2019-02-17T22:10:20.158Z,4.40
2019-02-17T22:12:51.122Z,5.37
2019-02-17T22:15:21.245Z,4.57
2019-02-17T22:17:50.087Z,4.67
2019-02-17T22:20:18.959Z,4.40
2019-02-17T22:22:47.787Z,4.40
2019-02-17T22:25:16.655Z,4.70
2019-02-17T22:27:45.536Z,4.80
2019-02-17T22:30:15.456Z,3.93
2019-02-17T22:32:44.337Z,4.70
2019-02-17T22:35:13.206Z,4.73
2019-02-17T22:37:42.043Z,4.50
2019-02-17T22:40:12.295Z,5.00
2019-02-17T22:42:41.160Z,4.63
2019-02-17T22:45:11.498Z,5.07
2019-02-17T22:47:40.368Z,5.33
2019-02-17T22:50:14.579Z,5.43
2019-02-17T22:52:44.654Z,5.60
2019-02-17T22:55:14.318Z,5.90
2019-02-17T22:57:43.139Z,5.10
2019-02-17T23:00:28.590Z,5.93
2019-02-17T23:02:57.464Z,5.70
2019-02-17T23:05:26.299Z,6.00
2019-02-17T23:07:55.158Z,5.83
2019-02-17T23:10:24.043Z,5.67
2019-02-17T23:12:52.867Z,6.10
2019-02-17T23:15:21.732Z,5.00
2019-02-17T23:17:50.602Z,5.60
2019-02-17T23:20:19.431Z,4.83
2019-02-17T23:22:48.298Z,4.80
2019-02-17T23:25:17.473Z,4.23
2019-02-17T23:27:47.065Z,4.40
2019-02-17T23:30:15.979Z,4.80
2019-02-17T23:32:44.869Z,4.73
2019-02-17T23:35:13.731Z,5.03
2019-02-17T23:37:42.835Z,4.23
2019-02-17T23:40:12.699Z,4.53
2019-02-17T23:42:41.560Z,4.80
2019-02-17T23:45:14.120Z,5.17
2019-02-17T23:47:43.003Z,4.70
2019-02-17T23:50:13.281Z,4.63
2019-02-17T23:52:42.787Z,4.93
2019-02-17T23:55:12.262Z,5.50
2019-02-17T23:57:41.759Z,4.67
